sensor_id;sensor_type;location;lat;lon;timestamp;P1;durP1;ratioP1;P2;durP2;ratioP2
36291;SDS011;22327;51.208;6.418;2023-11-18T00:02:41;32.05;;;17.60;;
36291;SDS011;22327;51.208;6.418;2023-11-18T00:05:42;33.05;;;16.83;;
36291;SDS011;22327;51.208;6.418;2023-11-18T00:08:43;38.08;;;17.20;;
36291;SDS011;22327;51.208;6.418;2023-11-18T00:11:43;34.63;;;16.55;;
36291;SDS011;22327;51.208;6.418;2023-11-18T00:14:44;35.50;;;17.48;;
36291;SDS011;22327;51.208;6.418;2023-11-18T00:17:45;32.70;;;17.60;;
36291;SDS011;22327;51.208;6.418;2023-11-18T00:20:46;29.67;;;15.75;;
36291;SDS011;22327;51.208;6.418;2023-11-18T00:23:46;30.25;;;15.43;;
36291;SDS011;22327;51.208;6.418;2023-11-18T00:26:48;28.90;;;15.90;;
36291;SDS011;22327;51.208;6.418;2023-11-18T00:29:48;29.88;;;16.92;;
36291;SDS011;22327;51.208;6.418;2023-11-18T00:32:49;29.67;;;15.80;;
36291;SDS011;22327;51.208;6.418;2023-11-18T00:35:50;31.23;;;16.73;;
36291;SDS011;22327;51.208;6.418;2023-11-18T00:38:50;29.45;;;16.55;;
36291;SDS011;22327;51.208;6.418;2023-11-18T00:41:51;31.70;;;16.73;;
36291;SDS011;22327;51.208;6.418;2023-11-18T00:44:52;32.70;;;16.85;;
36291;SDS011;22327;51.208;6.418;2023-11-18T00:47:55;32.75;;;16.98;;
36291;SDS011;22327;51.208;6.418;2023-11-18T00:50:55;35.88;;;17.95;;
36291;SDS011;22327;51.208;6.418;2023-11-18T00:53:56;30.38;;;16.75;;
36291;SDS011;22327;51.208;6.418;2023-11-18T00:56:57;33.65;;;16.83;;
36291;SDS011;22327;51.208;6.418;2023-11-18T00:59:57;34.80;;;16.75;;
36291;SDS011;22327;51.208;6.418;2023-11-18T01:03:01;34.60;;;17.70;;
36291;SDS011;22327;51.208;6.418;2023-11-18T01:06:02;38.95;;;18.30;;
36291;SDS011;22327;51.208;6.418;2023-11-18T01:09:04;38.17;;;18.73;;
36291;SDS011;22327;51.208;6.418;2023-11-18T01:12:07;36.35;;;18.48;;
36291;SDS011;22327;51.208;6.418;2023-11-18T01:15:09;37.03;;;18.95;;
36291;SDS011;22327;51.208;6.418;2023-11-18T01:18:13;38.60;;;18.80;;
36291;SDS011;22327;51.208;6.418;2023-11-18T01:21:14;39.40;;;18.02;;
36291;SDS011;22327;51.208;6.418;2023-11-18T01:24:17;35.03;;;18.98;;
36291;SDS011;22327;51.208;6.418;2023-11-18T01:27:18;42.97;;;19.73;;
36291;SDS011;22327;51.208;6.418;2023-11-18T01:30:19;39.42;;;19.52;;
36291;SDS011;22327;51.208;6.418;2023-11-18T01:33:20;38.55;;;18.52;;
36291;SDS011;22327;51.208;6.418;2023-11-18T01:36:21;36.42;;;18.67;;
36291;SDS011;22327;51.208;6.418;2023-11-18T01:39:21;41.10;;;19.65;;
36291;SDS011;22327;51.208;6.418;2023-11-18T01:42:22;38.30;;;19.45;;
36291;SDS011;22327;51.208;6.418;2023-11-18T01:45:22;38.60;;;18.77;;
36291;SDS011;22327;51.208;6.418;2023-11-18T01:48:23;42.67;;;19.52;;
36291;SDS011;22327;51.208;6.418;2023-11-18T01:51:26;39.97;;;19.55;;
36291;SDS011;22327;51.208;6.418;2023-11-18T01:54:27;41.40;;;19.67;;
36291;SDS011;22327;51.208;6.418;2023-11-18T01:57:28;44.22;;;19.63;;
36291;SDS011;22327;51.208;6.418;2023-11-18T02:00:29;43.97;;;20.13;;
36291;SDS011;22327;51.208;6.418;2023-11-18T02:03:30;40.38;;;20.25;;
36291;SDS011;22327;51.208;6.418;2023-11-18T02:06:31;44.60;;;19.80;;
36291;SDS011;22327;51.208;6.418;2023-11-18T02:09:31;40.65;;;21.60;;
36291;SDS011;22327;51.208;6.418;2023-11-18T02:12:38;41.92;;;20.25;;
36291;SDS011;22327;51.208;6.418;2023-11-18T02:15:47;45.30;;;20.73;;
36291;SDS011;22327;51.208;6.418;2023-11-18T02:18:48;45.90;;;19.95;;
36291;SDS011;22327;51.208;6.418;2023-11-18T02:21:49;45.83;;;20.77;;
36291;SDS011;22327;51.208;6.418;2023-11-18T02:24:54;48.35;;;20.58;;
36291;SDS011;22327;51.208;6.418;2023-11-18T02:27:55;46.97;;;21.40;;
36291;SDS011;22327;51.208;6.418;2023-11-18T02:30:56;45.88;;;20.92;;
36291;SDS011;22327;51.208;6.418;2023-11-18T02:34:13;45.03;;;20.38;;
36291;SDS011;22327;51.208;6.418;2023-11-18T02:37:20;46.80;;;21.10;;
36291;SDS011;22327;51.208;6.418;2023-11-18T02:40:43;45.47;;;20.80;;
36291;SDS011;22327;51.208;6.418;2023-11-18T02:43:43;46.92;;;20.65;;
36291;SDS011;22327;51.208;6.418;2023-11-18T02:46:45;42.83;;;19.80;;
36291;SDS011;22327;51.208;6.418;2023-11-18T02:49:53;41.67;;;20.27;;
36291;SDS011;22327;51.208;6.418;2023-11-18T02:52:54;43.90;;;19.25;;
36291;SDS011;22327;51.208;6.418;2023-11-18T02:55:55;45.08;;;20.02;;
36291;SDS011;22327;51.208;6.418;2023-11-18T02:59:02;46.13;;;19.63;;
36291;SDS011;22327;51.208;6.418;2023-11-18T03:02:05;49.25;;;21.23;;
36291;SDS011;22327;51.208;6.418;2023-11-18T03:05:09;44.47;;;20.58;;
36291;SDS011;22327;51.208;6.418;2023-11-18T03:08:11;49.45;;;20.25;;
36291;SDS011;22327;51.208;6.418;2023-11-18T03:11:12;47.15;;;21.25;;
36291;SDS011;22327;51.208;6.418;2023-11-18T03:14:12;50.67;;;20.85;;
36291;SDS011;22327;51.208;6.418;2023-11-18T03:17:13;56.17;;;22.75;;
36291;SDS011;22327;51.208;6.418;2023-11-18T03:20:14;52.65;;;21.90;;
36291;SDS011;22327;51.208;6.418;2023-11-18T03:23:16;58.53;;;21.67;;
36291;SDS011;22327;51.208;6.418;2023-11-18T03:26:17;55.13;;;21.42;;
36291;SDS011;22327;51.208;6.418;2023-11-18T03:29:19;53.42;;;21.55;;
36291;SDS011;22327;51.208;6.418;2023-11-18T03:32:19;55.25;;;21.67;;
36291;SDS011;22327;51.208;6.418;2023-11-18T03:35:20;60.65;;;22.65;;
36291;SDS011;22327;51.208;6.418;2023-11-18T03:38:20;64.35;;;21.60;;
36291;SDS011;22327;51.208;6.418;2023-11-18T03:41:21;58.35;;;22.75;;
36291;SDS011;22327;51.208;6.418;2023-11-18T03:44:23;60.65;;;22.42;;
36291;SDS011;22327;51.208;6.418;2023-11-18T03:47:24;60.35;;;22.08;;
36291;SDS011;22327;51.208;6.418;2023-11-18T03:50:24;65.78;;;22.30;;
36291;SDS011;22327;51.208;6.418;2023-11-18T03:53:25;60.75;;;22.00;;
36291;SDS011;22327;51.208;6.418;2023-11-18T03:56:25;70.97;;;23.02;;
36291;SDS011;22327;51.208;6.418;2023-11-18T03:59:26;65.53;;;22.30;;
36291;SDS011;22327;51.208;6.418;2023-11-18T04:02:27;69.85;;;24.33;;
36291;SDS011;22327;51.208;6.418;2023-11-18T04:05:28;70.15;;;22.92;;
36291;SDS011;22327;51.208;6.418;2023-11-18T04:08:29;82.10;;;24.33;;
36291;SDS011;22327;51.208;6.418;2023-11-18T04:11:29;80.20;;;24.98;;
36291;SDS011;22327;51.208;6.418;2023-11-18T04:14:30;84.75;;;22.85;;
36291;SDS011;22327;51.208;6.418;2023-11-18T04:17:31;88.80;;;27.20;;
36291;SDS011;22327;51.208;6.418;2023-11-18T04:20:32;94.75;;;26.38;;
36291;SDS011;22327;51.208;6.418;2023-11-18T04:23:32;88.40;;;23.50;;
36291;SDS011;22327;51.208;6.418;2023-11-18T04:26:34;94.88;;;26.48;;
36291;SDS011;22327;51.208;6.418;2023-11-18T04:29:35;117.68;;;27.33;;
36291;SDS011;22327;51.208;6.418;2023-11-18T04:32:37;127.15;;;27.77;;
36291;SDS011;22327;51.208;6.418;2023-11-18T04:35:37;184.75;;;32.60;;
36291;SDS011;22327;51.208;6.418;2023-11-18T04:38:38;137.07;;;30.80;;
36291;SDS011;22327;51.208;6.418;2023-11-18T04:41:39;139.23;;;31.00;;
36291;SDS011;22327;51.208;6.418;2023-11-18T04:44:39;126.95;;;27.90;;
36291;SDS011;22327;51.208;6.418;2023-11-18T04:47:41;158.98;;;30.02;;
36291;SDS011;22327;51.208;6.418;2023-11-18T04:50:43;142.02;;;31.15;;
36291;SDS011;22327;51.208;6.418;2023-11-18T04:53:43;138.40;;;29.83;;
36291;SDS011;22327;51.208;6.418;2023-11-18T04:56:45;129.75;;;30.10;;
36291;SDS011;22327;51.208;6.418;2023-11-18T04:59:46;136.02;;;29.05;;
36291;SDS011;22327;51.208;6.418;2023-11-18T05:02:46;131.32;;;29.38;;
36291;SDS011;22327;51.208;6.418;2023-11-18T05:05:48;114.15;;;27.60;;
36291;SDS011;22327;51.208;6.418;2023-11-18T05:08:49;139.18;;;30.90;;
36291;SDS011;22327;51.208;6.418;2023-11-18T05:11:50;126.38;;;30.40;;
36291;SDS011;22327;51.208;6.418;2023-11-18T05:14:50;126.18;;;28.63;;
36291;SDS011;22327;51.208;6.418;2023-11-18T05:17:51;113.82;;;30.02;;
36291;SDS011;22327;51.208;6.418;2023-11-18T05:20:52;120.70;;;28.05;;
36291;SDS011;22327;51.208;6.418;2023-11-18T05:23:54;118.95;;;30.13;;
36291;SDS011;22327;51.208;6.418;2023-11-18T05:26:54;109.32;;;26.67;;
36291;SDS011;22327;51.208;6.418;2023-11-18T05:29:55;110.05;;;28.63;;
36291;SDS011;22327;51.208;6.418;2023-11-18T05:32:59;112.20;;;28.60;;
36291;SDS011;22327;51.208;6.418;2023-11-18T05:36:04;97.57;;;27.35;;
36291;SDS011;22327;51.208;6.418;2023-11-18T05:39:07;108.20;;;26.65;;
36291;SDS011;22327;51.208;6.418;2023-11-18T05:42:09;99.25;;;27.30;;
36291;SDS011;22327;51.208;6.418;2023-11-18T05:45:10;105.25;;;27.35;;
36291;SDS011;22327;51.208;6.418;2023-11-18T05:48:17;94.53;;;27.40;;
36291;SDS011;22327;51.208;6.418;2023-11-18T05:51:19;100.63;;;27.73;;
36291;SDS011;22327;51.208;6.418;2023-11-18T05:54:23;83.05;;;25.85;;
36291;SDS011;22327;51.208;6.418;2023-11-18T05:57:24;86.85;;;25.27;;
36291;SDS011;22327;51.208;6.418;2023-11-18T06:00:26;82.30;;;25.00;;
36291;SDS011;22327;51.208;6.418;2023-11-18T06:03:30;81.22;;;23.95;;
36291;SDS011;22327;51.208;6.418;2023-11-18T06:06:31;73.25;;;24.02;;
36291;SDS011;22327;51.208;6.418;2023-11-18T06:09:32;86.03;;;26.02;;
36291;SDS011;22327;51.208;6.418;2023-11-18T06:12:32;66.13;;;23.55;;
36291;SDS011;22327;51.208;6.418;2023-11-18T06:15:33;77.30;;;23.58;;
36291;SDS011;22327;51.208;6.418;2023-11-18T06:18:35;62.25;;;22.23;;
36291;SDS011;22327;51.208;6.418;2023-11-18T06:21:37;72.00;;;23.05;;
36291;SDS011;22327;51.208;6.418;2023-11-18T06:24:38;61.47;;;22.40;;
36291;SDS011;22327;51.208;6.418;2023-11-18T06:27:39;71.03;;;21.88;;
36291;SDS011;22327;51.208;6.418;2023-11-18T06:30:40;61.95;;;20.52;;
36291;SDS011;22327;51.208;6.418;2023-11-18T06:33:42;58.20;;;19.63;;
36291;SDS011;22327;51.208;6.418;2023-11-18T06:36:43;62.97;;;21.55;;
36291;SDS011;22327;51.208;6.418;2023-11-18T06:39:43;61.45;;;21.00;;
36291;SDS011;22327;51.208;6.418;2023-11-18T06:45:48;55.65;;;19.92;;
36291;SDS011;22327;51.208;6.418;2023-11-18T06:48:48;51.42;;;19.23;;
36291;SDS011;22327;51.208;6.418;2023-11-18T06:51:49;55.42;;;20.38;;
36291;SDS011;22327;51.208;6.418;2023-11-18T06:54:50;57.83;;;19.67;;
36291;SDS011;22327;51.208;6.418;2023-11-18T06:57:51;50.22;;;20.02;;
36291;SDS011;22327;51.208;6.418;2023-11-18T07:00:52;47.42;;;18.45;;
36291;SDS011;22327;51.208;6.418;2023-11-18T07:03:53;49.67;;;18.52;;
36291;SDS011;22327;51.208;6.418;2023-11-18T07:06:53;47.58;;;18.83;;
36291;SDS011;22327;51.208;6.418;2023-11-18T07:09:54;44.65;;;16.80;;
36291;SDS011;22327;51.208;6.418;2023-11-18T07:12:55;39.60;;;18.00;;
36291;SDS011;22327;51.208;6.418;2023-11-18T07:15:56;43.95;;;17.60;;
36291;SDS011;22327;51.208;6.418;2023-11-18T07:18:57;44.40;;;18.38;;
36291;SDS011;22327;51.208;6.418;2023-11-18T07:21:57;41.58;;;17.88;;
36291;SDS011;22327;51.208;6.418;2023-11-18T07:24:59;43.90;;;18.40;;
36291;SDS011;22327;51.208;6.418;2023-11-18T07:27:59;42.08;;;19.17;;
36291;SDS011;22327;51.208;6.418;2023-11-18T07:31:00;40.08;;;17.45;;
36291;SDS011;22327;51.208;6.418;2023-11-18T07:34:04;36.25;;;17.50;;
36291;SDS011;22327;51.208;6.418;2023-11-18T07:37:08;39.08;;;17.08;;
36291;SDS011;22327;51.208;6.418;2023-11-18T07:40:09;42.08;;;16.70;;
36291;SDS011;22327;51.208;6.418;2023-11-18T07:43:12;35.20;;;16.55;;
36291;SDS011;22327;51.208;6.418;2023-11-18T07:46:12;38.70;;;16.40;;
36291;SDS011;22327;51.208;6.418;2023-11-18T07:49:13;38.30;;;16.73;;
36291;SDS011;22327;51.208;6.418;2023-11-18T07:52:16;34.83;;;16.27;;
36291;SDS011;22327;51.208;6.418;2023-11-18T07:55:17;33.00;;;16.10;;
36291;SDS011;22327;51.208;6.418;2023-11-18T07:58:18;34.95;;;16.48;;
36291;SDS011;22327;51.208;6.418;2023-11-18T08:01:20;34.13;;;16.75;;
36291;SDS011;22327;51.208;6.418;2023-11-18T08:04:21;30.88;;;15.60;;
36291;SDS011;22327;51.208;6.418;2023-11-18T08:07:21;32.75;;;15.68;;
36291;SDS011;22327;51.208;6.418;2023-11-18T08:10:22;30.30;;;15.18;;
36291;SDS011;22327;51.208;6.418;2023-11-18T08:13:24;31.27;;;15.82;;
36291;SDS011;22327;51.208;6.418;2023-11-18T08:16:26;32.70;;;16.67;;
36291;SDS011;22327;51.208;6.418;2023-11-18T08:19:28;32.58;;;14.30;;
36291;SDS011;22327;51.208;6.418;2023-11-18T08:22:29;30.20;;;16.08;;
36291;SDS011;22327;51.208;6.418;2023-11-18T08:25:30;27.88;;;14.30;;
36291;SDS011;22327;51.208;6.418;2023-11-18T08:28:33;32.58;;;15.90;;
36291;SDS011;22327;51.208;6.418;2023-11-18T08:31:34;26.65;;;13.65;;
36291;SDS011;22327;51.208;6.418;2023-11-18T08:34:35;30.80;;;15.27;;
36291;SDS011;22327;51.208;6.418;2023-11-18T08:37:37;25.60;;;14.57;;
36291;SDS011;22327;51.208;6.418;2023-11-18T08:40:38;26.60;;;14.38;;
36291;SDS011;22327;51.208;6.418;2023-11-18T08:43:38;25.90;;;13.55;;
36291;SDS011;22327;51.208;6.418;2023-11-18T08:46:41;22.20;;;12.45;;
36291;SDS011;22327;51.208;6.418;2023-11-18T08:49:43;19.92;;;12.38;;
36291;SDS011;22327;51.208;6.418;2023-11-18T08:52:46;22.05;;;11.90;;
36291;SDS011;22327;51.208;6.418;2023-11-18T08:55:47;23.48;;;12.23;;
36291;SDS011;22327;51.208;6.418;2023-11-18T08:58:56;21.88;;;12.20;;
36291;SDS011;22327;51.208;6.418;2023-11-18T09:01:59;18.25;;;11.32;;
36291;SDS011;22327;51.208;6.418;2023-11-18T09:04:59;19.17;;;10.65;;
36291;SDS011;22327;51.208;6.418;2023-11-18T09:08:00;19.42;;;11.65;;
36291;SDS011;22327;51.208;6.418;2023-11-18T09:11:02;18.23;;;10.93;;
36291;SDS011;22327;51.208;6.418;2023-11-18T09:14:07;18.63;;;10.68;;
36291;SDS011;22327;51.208;6.418;2023-11-18T09:17:08;20.73;;;10.93;;
36291;SDS011;22327;51.208;6.418;2023-11-18T09:20:09;15.77;;;9.82;;
36291;SDS011;22327;51.208;6.418;2023-11-18T09:23:11;17.88;;;10.00;;
36291;SDS011;22327;51.208;6.418;2023-11-18T09:26:11;13.55;;;9.48;;
36291;SDS011;22327;51.208;6.418;2023-11-18T09:29:12;13.15;;;9.07;;
36291;SDS011;22327;51.208;6.418;2023-11-18T09:32:13;11.82;;;8.40;;
36291;SDS011;22327;51.208;6.418;2023-11-18T09:35:14;13.88;;;8.02;;
36291;SDS011;22327;51.208;6.418;2023-11-18T09:38:17;12.77;;;8.35;;
36291;SDS011;22327;51.208;6.418;2023-11-18T09:41:17;13.18;;;7.45;;
36291;SDS011;22327;51.208;6.418;2023-11-18T09:44:18;12.25;;;6.60;;
36291;SDS011;22327;51.208;6.418;2023-11-18T09:47:20;15.80;;;8.35;;
36291;SDS011;22327;51.208;6.418;2023-11-18T09:50:24;14.75;;;7.45;;
36291;SDS011;22327;51.208;6.418;2023-11-18T09:53:28;19.98;;;7.65;;
36291;SDS011;22327;51.208;6.418;2023-11-18T09:56:38;13.38;;;7.00;;
36291;SDS011;22327;51.208;6.418;2023-11-18T10:02:47;9.97;;;6.17;;
36291;SDS011;22327;51.208;6.418;2023-11-18T10:05:50;7.37;;;5.77;;
36291;SDS011;22327;51.208;6.418;2023-11-18T10:08:54;8.68;;;6.03;;
36291;SDS011;22327;51.208;6.418;2023-11-18T10:11:55;9.57;;;6.30;;
36291;SDS011;22327;51.208;6.418;2023-11-18T10:15:00;8.00;;;5.70;;
36291;SDS011;22327;51.208;6.418;2023-11-18T10:18:03;10.87;;;6.23;;
36291;SDS011;22327;51.208;6.418;2023-11-18T10:21:07;8.63;;;5.43;;
36291;SDS011;22327;51.208;6.418;2023-11-18T10:24:11;10.85;;;5.97;;
36291;SDS011;22327;51.208;6.418;2023-11-18T10:27:14;8.55;;;6.88;;
36291;SDS011;22327;51.208;6.418;2023-11-18T10:30:15;7.78;;;4.72;;
36291;SDS011;22327;51.208;6.418;2023-11-18T10:33:21;7.32;;;5.40;;
36291;SDS011;22327;51.208;6.418;2023-11-18T10:36:22;8.05;;;5.00;;
36291;SDS011;22327;51.208;6.418;2023-11-18T10:39:24;12.07;;;5.28;;
36291;SDS011;22327;51.208;6.418;2023-11-18T10:42:31;8.25;;;4.15;;
36291;SDS011;22327;51.208;6.418;2023-11-18T10:45:32;7.43;;;4.63;;
36291;SDS011;22327;51.208;6.418;2023-11-18T10:48:33;8.60;;;4.40;;
36291;SDS011;22327;51.208;6.418;2023-11-18T10:51:34;7.53;;;4.45;;
36291;SDS011;22327;51.208;6.418;2023-11-18T10:54:35;7.25;;;4.13;;
36291;SDS011;22327;51.208;6.418;2023-11-18T10:57:37;8.75;;;4.57;;
36291;SDS011;22327;51.208;6.418;2023-11-18T11:00:48;7.03;;;3.97;;
36291;SDS011;22327;51.208;6.418;2023-11-18T11:03:55;7.05;;;3.92;;
36291;SDS011;22327;51.208;6.418;2023-11-18T11:06:56;6.15;;;3.85;;
36291;SDS011;22327;51.208;6.418;2023-11-18T11:09:57;6.90;;;3.90;;
36291;SDS011;22327;51.208;6.418;2023-11-18T11:13:00;6.97;;;3.63;;
36291;SDS011;22327;51.208;6.418;2023-11-18T11:16:02;6.47;;;4.10;;
36291;SDS011;22327;51.208;6.418;2023-11-18T11:19:05;8.32;;;4.60;;
36291;SDS011;22327;51.208;6.418;2023-11-18T11:22:08;8.47;;;4.43;;
36291;SDS011;22327;51.208;6.418;2023-11-18T11:26:01;7.20;;;4.10;;
36291;SDS011;22327;51.208;6.418;2023-11-18T11:35:18;5.32;;;3.78;;
36291;SDS011;22327;51.208;6.418;2023-11-18T11:38:23;5.55;;;3.30;;
36291;SDS011;22327;51.208;6.418;2023-11-18T11:41:27;5.40;;;3.33;;
36291;SDS011;22327;51.208;6.418;2023-11-18T11:44:28;6.85;;;3.10;;
36291;SDS011;22327;51.208;6.418;2023-11-18T11:47:30;5.43;;;2.80;;
36291;SDS011;22327;51.208;6.418;2023-11-18T11:50:36;8.07;;;3.33;;
36291;SDS011;22327;51.208;6.418;2023-11-18T11:53:52;6.80;;;3.13;;
36291;SDS011;22327;51.208;6.418;2023-11-18T11:56:58;5.20;;;2.83;;
36291;SDS011;22327;51.208;6.418;2023-11-18T12:00:04;6.90;;;3.40;;
36291;SDS011;22327;51.208;6.418;2023-11-18T12:03:15;6.35;;;2.70;;
36291;SDS011;22327;51.208;6.418;2023-11-18T12:06:20;4.47;;;2.75;;
36291;SDS011;22327;51.208;6.418;2023-11-18T12:09:23;7.10;;;2.65;;
36291;SDS011;22327;51.208;6.418;2023-11-18T12:12:32;4.53;;;2.10;;
36291;SDS011;22327;51.208;6.418;2023-11-18T12:15:52;6.18;;;2.63;;
36291;SDS011;22327;51.208;6.418;2023-11-18T12:19:37;5.28;;;2.30;;
36291;SDS011;22327;51.208;6.418;2023-11-18T12:23:03;4.93;;;2.00;;
36291;SDS011;22327;51.208;6.418;2023-11-18T12:29:42;3.30;;;1.95;;
36291;SDS011;22327;51.208;6.418;2023-11-18T12:36:05;3.85;;;2.25;;
36291;SDS011;22327;51.208;6.418;2023-11-18T12:39:44;4.80;;;1.80;;
36291;SDS011;22327;51.208;6.418;2023-11-18T12:43:15;4.05;;;1.85;;
36291;SDS011;22327;51.208;6.418;2023-11-18T12:50:09;3.08;;;1.50;;
36291;SDS011;22327;51.208;6.418;2023-11-18T12:53:17;6.32;;;1.77;;
36291;SDS011;22327;51.208;6.418;2023-11-18T12:56:19;4.63;;;1.63;;
36291;SDS011;22327;51.208;6.418;2023-11-18T12:59:20;5.82;;;1.65;;
36291;SDS011;22327;51.208;6.418;2023-11-18T13:02:21;4.13;;;1.88;;
36291;SDS011;22327;51.208;6.418;2023-11-18T13:05:23;5.63;;;1.70;;
36291;SDS011;22327;51.208;6.418;2023-11-18T13:08:29;4.18;;;1.85;;
36291;SDS011;22327;51.208;6.418;2023-11-18T13:11:30;3.83;;;2.13;;
36291;SDS011;22327;51.208;6.418;2023-11-18T13:14:32;3.92;;;1.60;;
36291;SDS011;22327;51.208;6.418;2023-11-18T13:17:36;3.05;;;1.70;;
36291;SDS011;22327;51.208;6.418;2023-11-18T13:20:37;4.03;;;1.67;;
36291;SDS011;22327;51.208;6.418;2023-11-18T13:23:39;5.40;;;2.40;;
36291;SDS011;22327;51.208;6.418;2023-11-18T13:26:39;3.95;;;2.10;;
36291;SDS011;22327;51.208;6.418;2023-11-18T13:29:43;6.30;;;1.73;;
36291;SDS011;22327;51.208;6.418;2023-11-18T13:32:45;4.05;;;1.67;;
36291;SDS011;22327;51.208;6.418;2023-11-18T13:35:46;4.72;;;1.98;;
36291;SDS011;22327;51.208;6.418;2023-11-18T13:38:47;4.22;;;1.60;;
36291;SDS011;22327;51.208;6.418;2023-11-18T13:41:49;5.65;;;1.75;;
36291;SDS011;22327;51.208;6.418;2023-11-18T13:44:50;3.72;;;1.80;;
36291;SDS011;22327;51.208;6.418;2023-11-18T13:47:55;5.90;;;1.63;;
36291;SDS011;22327;51.208;6.418;2023-11-18T13:50:57;2.70;;;1.75;;
36291;SDS011;22327;51.208;6.418;2023-11-18T13:53:58;2.85;;;1.45;;
36291;SDS011;22327;51.208;6.418;2023-11-18T13:56:59;4.15;;;1.80;;
36291;SDS011;22327;51.208;6.418;2023-11-18T14:00:00;1.95;;;1.35;;
36291;SDS011;22327;51.208;6.418;2023-11-18T14:03:00;2.08;;;1.45;;
36291;SDS011;22327;51.208;6.418;2023-11-18T14:06:07;3.72;;;1.50;;
36291;SDS011;22327;51.208;6.418;2023-11-18T14:09:12;2.78;;;1.48;;
36291;SDS011;22327;51.208;6.418;2023-11-18T14:12:13;5.32;;;1.90;;
36291;SDS011;22327;51.208;6.418;2023-11-18T14:15:14;4.65;;;1.92;;
36291;SDS011;22327;51.208;6.418;2023-11-18T14:18:15;4.00;;;1.65;;
36291;SDS011;22327;51.208;6.418;2023-11-18T14:21:17;2.80;;;1.80;;
36291;SDS011;22327;51.208;6.418;2023-11-18T14:24:18;2.47;;;1.50;;
36291;SDS011;22327;51.208;6.418;2023-11-18T14:27:19;3.33;;;1.90;;
36291;SDS011;22327;51.208;6.418;2023-11-18T14:30:20;3.60;;;1.92;;
36291;SDS011;22327;51.208;6.418;2023-11-18T14:33:24;3.80;;;1.80;;
36291;SDS011;22327;51.208;6.418;2023-11-18T14:36:25;4.20;;;1.80;;
36291;SDS011;22327;51.208;6.418;2023-11-18T14:39:27;3.53;;;1.27;;
36291;SDS011;22327;51.208;6.418;2023-11-18T14:42:30;4.30;;;2.10;;
36291;SDS011;22327;51.208;6.418;2023-11-18T14:45:32;3.45;;;1.80;;
36291;SDS011;22327;51.208;6.418;2023-11-18T14:48:34;5.00;;;1.88;;
36291;SDS011;22327;51.208;6.418;2023-11-18T14:51:35;4.45;;;1.70;;
36291;SDS011;22327;51.208;6.418;2023-11-18T14:54:36;3.38;;;1.80;;
36291;SDS011;22327;51.208;6.418;2023-11-18T14:57:37;4.25;;;2.00;;
36291;SDS011;22327;51.208;6.418;2023-11-18T15:03:42;3.92;;;1.75;;
36291;SDS011;22327;51.208;6.418;2023-11-18T15:06:43;3.28;;;1.52;;
36291;SDS011;22327;51.208;6.418;2023-11-18T15:09:43;2.58;;;1.80;;
36291;SDS011;22327;51.208;6.418;2023-11-18T15:12:44;3.78;;;1.95;;
36291;SDS011;22327;51.208;6.418;2023-11-18T15:15:44;6.22;;;2.30;;
36291;SDS011;22327;51.208;6.418;2023-11-18T15:18:48;4.60;;;2.05;;
36291;SDS011;22327;51.208;6.418;2023-11-18T15:21:56;3.63;;;2.10;;
36291;SDS011;22327;51.208;6.418;2023-11-18T15:24:57;4.43;;;2.20;;
36291;SDS011;22327;51.208;6.418;2023-11-18T15:27:59;5.38;;;2.17;;
36291;SDS011;22327;51.208;6.418;2023-11-18T15:31:00;5.00;;;1.95;;
36291;SDS011;22327;51.208;6.418;2023-11-18T15:34:04;3.42;;;2.25;;
36291;SDS011;22327;51.208;6.418;2023-11-18T15:37:04;3.35;;;1.90;;
36291;SDS011;22327;51.208;6.418;2023-11-18T15:40:05;5.35;;;2.53;;
36291;SDS011;22327;51.208;6.418;2023-11-18T15:43:10;4.40;;;2.58;;
36291;SDS011;22327;51.208;6.418;2023-11-18T15:46:12;3.65;;;2.35;;
36291;SDS011;22327;51.208;6.418;2023-11-18T15:49:12;3.88;;;1.90;;
36291;SDS011;22327;51.208;6.418;2023-11-18T15:52:13;5.43;;;2.60;;
36291;SDS011;22327;51.208;6.418;2023-11-18T15:55:17;5.28;;;3.15;;
36291;SDS011;22327;51.208;6.418;2023-11-18T15:58:18;9.38;;;4.97;;
36291;SDS011;22327;51.208;6.418;2023-11-18T16:01:21;9.52;;;6.13;;
36291;SDS011;22327;51.208;6.418;2023-11-18T16:04:22;8.20;;;4.97;;
36291;SDS011;22327;51.208;6.418;2023-11-18T16:07:22;7.30;;;4.38;;
36291;SDS011;22327;51.208;6.418;2023-11-18T16:10:23;5.18;;;3.45;;
36291;SDS011;22327;51.208;6.418;2023-11-18T16:13:25;4.78;;;2.53;;
36291;SDS011;22327;51.208;6.418;2023-11-18T16:16:25;5.80;;;2.80;;
36291;SDS011;22327;51.208;6.418;2023-11-18T16:19:27;5.32;;;3.30;;
36291;SDS011;22327;51.208;6.418;2023-11-18T16:22:28;4.90;;;3.25;;
36291;SDS011;22327;51.208;6.418;2023-11-18T16:25:28;4.68;;;2.63;;
36291;SDS011;22327;51.208;6.418;2023-11-18T16:28:34;5.00;;;2.80;;
36291;SDS011;22327;51.208;6.418;2023-11-18T16:31:34;4.22;;;2.58;;
36291;SDS011;22327;51.208;6.418;2023-11-18T16:34:35;3.58;;;2.53;;
36291;SDS011;22327;51.208;6.418;2023-11-18T16:37:35;4.90;;;2.80;;
36291;SDS011;22327;51.208;6.418;2023-11-18T16:40:36;5.10;;;2.92;;
36291;SDS011;22327;51.208;6.418;2023-11-18T16:43:36;3.25;;;2.38;;
36291;SDS011;22327;51.208;6.418;2023-11-18T16:46:37;4.53;;;2.60;;
36291;SDS011;22327;51.208;6.418;2023-11-18T16:49:39;4.78;;;2.65;;
36291;SDS011;22327;51.208;6.418;2023-11-18T16:52:40;4.32;;;3.35;;
36291;SDS011;22327;51.208;6.418;2023-11-18T16:55:40;3.83;;;2.83;;
36291;SDS011;22327;51.208;6.418;2023-11-18T16:58:41;6.03;;;3.22;;
36291;SDS011;22327;51.208;6.418;2023-11-18T17:01:43;4.43;;;3.25;;
36291;SDS011;22327;51.208;6.418;2023-11-18T17:04:44;3.60;;;2.58;;
36291;SDS011;22327;51.208;6.418;2023-11-18T17:07:45;5.60;;;2.90;;
36291;SDS011;22327;51.208;6.418;2023-11-18T17:10:45;5.03;;;3.00;;
36291;SDS011;22327;51.208;6.418;2023-11-18T17:13:53;5.15;;;2.97;;
36291;SDS011;22327;51.208;6.418;2023-11-18T17:16:53;5.20;;;3.40;;
36291;SDS011;22327;51.208;6.418;2023-11-18T17:19:54;4.13;;;3.08;;
36291;SDS011;22327;51.208;6.418;2023-11-18T17:22:54;4.28;;;3.30;;
36291;SDS011;22327;51.208;6.418;2023-11-18T17:25:55;5.05;;;3.42;;
36291;SDS011;22327;51.208;6.418;2023-11-18T17:28:56;4.95;;;3.15;;
36291;SDS011;22327;51.208;6.418;2023-11-18T17:31:59;4.65;;;4.03;;
36291;SDS011;22327;51.208;6.418;2023-11-18T17:34:59;6.78;;;3.90;;
36291;SDS011;22327;51.208;6.418;2023-11-18T17:38:00;4.55;;;3.38;;
36291;SDS011;22327;51.208;6.418;2023-11-18T17:41:01;5.25;;;3.42;;
36291;SDS011;22327;51.208;6.418;2023-11-18T17:44:02;5.60;;;3.00;;
36291;SDS011;22327;51.208;6.418;2023-11-18T17:47:02;5.03;;;3.55;;
36291;SDS011;22327;51.208;6.418;2023-11-18T17:50:03;4.45;;;3.65;;
36291;SDS011;22327;51.208;6.418;2023-11-18T17:53:08;4.75;;;3.25;;
36291;SDS011;22327;51.208;6.418;2023-11-18T17:56:09;4.35;;;3.22;;
36291;SDS011;22327;51.208;6.418;2023-11-18T17:59:09;3.63;;;3.13;;
36291;SDS011;22327;51.208;6.418;2023-11-18T18:02:10;4.25;;;3.50;;
36291;SDS011;22327;51.208;6.418;2023-11-18T18:05:12;5.65;;;4.00;;
36291;SDS011;22327;51.208;6.418;2023-11-18T18:08:12;4.63;;;3.78;;
36291;SDS011;22327;51.208;6.418;2023-11-18T18:11:14;5.93;;;3.40;;
36291;SDS011;22327;51.208;6.418;2023-11-18T18:14:16;3.20;;;2.65;;
36291;SDS011;22327;51.208;6.418;2023-11-18T18:17:17;6.35;;;3.40;;
36291;SDS011;22327;51.208;6.418;2023-11-18T18:20:18;4.82;;;2.92;;
36291;SDS011;22327;51.208;6.418;2023-11-18T18:23:20;4.63;;;2.97;;
36291;SDS011;22327;51.208;6.418;2023-11-18T18:26:20;7.97;;;3.33;;
36291;SDS011;22327;51.208;6.418;2023-11-18T18:29:21;3.60;;;3.00;;